Airport View

Enter AWOS ICAO identifier for current METAR.

ex. KFNL

KVSF 051254Z AUTO 15009KT 10SM CLR 22/18 A2996 RMK AO2 SLP145 T02170178

5 Aug 2020 13:04

Frequency: 121.425

Phone: 802-886-6006

Other Area AWOS: KLEB - KRUT - KEEN - KAFN

KLEB 051132Z 0512/0612 19006KT P6SM SCT035 FM051400 24010G17KT P6SM SCT250 FM052300 VRB03KT P6SM SCT250 FM060800 00000KT 2SM BR BKN002